Time;durP1;ratioP1;P1;durP2;ratioP2;P2;SDS_P1;SDS_P2;PMS_P1;PMS_P2;Temp;Humidity;BMP_temperature;BMP_pressure;BME280_temperature;BME280_humidity;BME280_pressure;Samples;Min_cycle;Max_cycle;Signal;HPM_P1;HPM_P2
2021/05/08 05:02:20;;;;;;;4.63;2.70;;;;;;;;;;6272208;22;895645;-82
2021/05/08 05:04:45;;;;;;;4.53;2.42;;;;;;;;;;6281627;22;20030;-82
2021/05/08 05:07:11;;;;;;;4.57;2.33;;;;;;;;;;6309589;22;20026;-82
2021/05/08 05:09:37;;;;;;;3.40;2.05;;;;;;;;;;6308762;22;20129;-79
2021/05/08 05:12:02;;;;;;;6.47;2.35;;;;;;;;;;6308213;22;20096;-81
2021/05/08 05:14:28;;;;;;;5.57;2.55;;;;;;;;;;6308414;22;20389;-81
2021/05/08 05:16:54;;;;;;;4.22;2.67;;;;;;;;;;6280805;22;20005;-80
2021/05/08 05:19:20;;;;;;;4.28;2.30;;;;;;;;;;6308776;22;20004;-81
2021/05/08 05:21:46;;;;;;;4.35;2.50;;;;;;;;;;6280769;22;20003;-79
2021/05/08 05:24:11;;;;;;;5.53;2.72;;;;;;;;;;6308174;22;20006;-79
2021/05/08 05:26:37;;;;;;;4.47;2.90;;;;;;;;;;6308414;22;20374;-80
2021/05/08 05:29:03;;;;;;;5.18;2.63;;;;;;;;;;6280604;22;20007;-80
2021/05/08 05:31:29;;;;;;;4.15;2.90;;;;;;;;;;6282024;22;20015;-80
2021/05/08 05:33:55;;;;;;;5.25;2.85;;;;;;;;;;6284379;22;20469;-80
2021/05/08 05:36:21;;;;;;;5.18;2.80;;;;;;;;;;6285666;22;20011;-81
2021/05/08 05:38:46;;;;;;;4.38;2.67;;;;;;;;;;6284623;22;20010;-82
2021/05/08 05:41:12;;;;;;;5.07;2.40;;;;;;;;;;6308388;22;20054;-80
2021/05/08 05:43:38;;;;;;;4.28;2.65;;;;;;;;;;6281169;22;19982;-81
2021/05/08 05:46:03;;;;;;;4.25;2.78;;;;;;;;;;6307568;22;20751;-82
2021/05/08 05:48:29;;;;;;;5.05;2.90;;;;;;;;;;6308590;22;20030;-81
2021/05/08 05:50:54;;;;;;;6.28;3.15;;;;;;;;;;6309061;22;20003;-80
2021/05/08 05:53:20;;;;;;;7.63;3.70;;;;;;;;;;6309983;22;20034;-81
2021/05/08 05:55:46;;;;;;;8.20;3.95;;;;;;;;;;6309125;22;20102;-80
2021/05/08 05:58:12;;;;;;;5.97;3.80;;;;;;;;;;6285578;22;20328;-79
2021/05/08 06:00:38;;;;;;;8.90;4.40;;;;;;;;;;6314634;22;20002;-81
2021/05/08 06:03:04;;;;;;;6.60;3.92;;;;;;;;;;6313463;22;20007;-81
2021/05/08 06:05:29;;;;;;;6.95;3.88;;;;;;;;;;6286111;22;20375;-80
2021/05/08 06:07:55;;;;;;;5.97;4.22;;;;;;;;;;6287748;22;20006;-80
2021/05/08 06:10:21;;;;;;;6.72;4.25;;;;;;;;;;6283716;22;20027;-80
2021/05/08 06:12:47;;;;;;;5.78;3.90;;;;;;;;;;6309247;22;20003;-79
2021/05/08 06:15:13;;;;;;;6.03;3.75;;;;;;;;;;6281261;22;20097;-82
2021/05/08 06:17:39;;;;;;;8.20;3.67;;;;;;;;;;6309473;22;20003;-78
2021/05/08 06:20:05;;;;;;;5.07;3.03;;;;;;;;;;6310022;22;20472;-79
2021/05/08 06:22:31;;;;;;;3.92;2.50;;;;;;;;;;6310589;22;20003;-79
2021/05/08 06:24:57;;;;;;;6.32;2.90;;;;;;;;;;6310429;22;19999;-77
2021/05/08 06:27:23;;;;;;;6.22;3.50;;;;;;;;;;6310827;22;20023;-79
2021/05/08 06:29:49;;;;;;;4.40;2.45;;;;;;;;;;6309890;22;20078;-80
2021/05/08 06:32:15;;;;;;;8.10;3.30;;;;;;;;;;6310406;22;19999;-79
2021/05/08 06:34:40;;;;;;;4.47;2.65;;;;;;;;;;6310891;22;20027;-78
2021/05/08 06:37:06;;;;;;;5.88;3.33;;;;;;;;;;6311525;22;19999;-82
2021/05/08 06:39:32;;;;;;;4.70;2.60;;;;;;;;;;6309479;22;19999;-78
2021/05/08 06:41:58;;;;;;;4.90;3.00;;;;;;;;;;6307951;22;20006;-81
2021/05/08 06:44:25;;;;;;;5.57;3.33;;;;;;;;;;6306916;22;20025;-78
2021/05/08 06:46:53;;;;;;;6.30;4.10;;;;;;;;;;6307190;22;20003;-79
2021/05/08 06:49:19;;;;;;;5.45;3.28;;;;;;;;;;6279280;22;20003;-78
2021/05/08 06:51:44;;;;;;;5.68;2.83;;;;;;;;;;6307225;22;20010;-78
2021/05/08 06:54:10;;;;;;;8.77;3.65;;;;;;;;;;6279521;22;20089;-79
2021/05/08 06:56:36;;;;;;;4.82;3.30;;;;;;;;;;6280709;22;20017;-78
2021/05/08 06:59:02;;;;;;;4.45;2.47;;;;;;;;;;6307311;22;20449;-80
2021/05/08 07:01:27;;;;;;;9.93;4.10;;;;;;;;;;6279628;22;20093;-79
2021/05/08 07:03:53;;;;;;;4.43;2.88;;;;;;;;;;6279712;22;20466;-80
2021/05/08 07:06:19;;;;;;;5.18;3.17;;;;;;;;;;6307953;22;20003;-79
2021/05/08 07:08:44;;;;;;;5.95;3.60;;;;;;;;;;6279245;22;19999;-79
2021/05/08 07:11:10;;;;;;;6.32;3.10;;;;;;;;;;6306433;22;21716;-80
2021/05/08 07:13:36;;;;;;;5.65;3.22;;;;;;;;;;6308294;22;20014;-78
2021/05/08 07:16:02;;;;;;;5.38;2.95;;;;;;;;;;6279242;22;20064;-80
2021/05/08 07:18:27;;;;;;;6.38;3.80;;;;;;;;;;6306909;22;20011;-80
2021/05/08 07:20:53;;;;;;;6.43;3.38;;;;;;;;;;6308505;22;20071;-77
2021/05/08 07:23:19;;;;;;;6.18;3.42;;;;;;;;;;6310224;22;20008;-77
2021/05/08 07:25:45;;;;;;;5.75;3.40;;;;;;;;;;6310165;22;20079;-78
2021/05/08 07:28:11;;;;;;;11.15;4.70;;;;;;;;;;6282603;22;20004;-78
2021/05/08 07:30:37;;;;;;;5.28;3.33;;;;;;;;;;6310653;22;20026;-78
2021/05/08 07:33:03;;;;;;;5.43;3.03;;;;;;;;;;6309417;22;19999;-79
2021/05/08 07:35:28;;;;;;;4.63;2.50;;;;;;;;;;6280416;22;20376;-80
2021/05/08 07:37:54;;;;;;;5.93;2.80;;;;;;;;;;6307675;22;20007;-80
2021/05/08 07:40:20;;;;;;;4.38;2.67;;;;;;;;;;6306979;22;20417;-79
2021/05/08 07:42:45;;;;;;;4.72;2.78;;;;;;;;;;6307474;22;20010;-78
2021/05/08 07:45:11;;;;;;;5.75;2.78;;;;;;;;;;6307880;22;19995;-77
2021/05/08 07:47:37;;;;;;;5.80;4.53;;;;;;;;;;6306554;22;20056;-75
2021/05/08 07:50:03;;;;;;;4.22;1.90;;;;;;;;;;6307502;22;19999;-78
2021/05/08 07:52:29;;;;;;;5.15;1.80;;;;;;;;;;6306970;22;20007;-78
2021/05/08 07:54:54;;;;;;;6.20;2.15;;;;;;;;;;6307172;22;20010;-79
2021/05/08 07:57:20;;;;;;;5.32;2.25;;;;;;;;;;6307663;22;20404;-76
2021/05/08 07:59:46;;;;;;;4.28;1.80;;;;;;;;;;6308435;22;20030;-77
2021/05/08 08:02:12;;;;;;;4.95;2.38;;;;;;;;;;6307086;22;20015;-78
2021/05/08 08:04:38;;;;;;;4.25;2.22;;;;;;;;;;6307914;22;19995;-76
2021/05/08 08:07:04;;;;;;;4.78;2.33;;;;;;;;;;6307451;22;20025;-79
2021/05/08 08:09:29;;;;;;;3.85;2.05;;;;;;;;;;6309265;22;20018;-77
2021/05/08 08:11:55;;;;;;;4.90;2.05;;;;;;;;;;6281798;22;20026;-77
2021/05/08 08:14:21;;;;;;;4.03;1.73;;;;;;;;;;6309245;22;20030;-76
2021/05/08 08:16:46;;;;;;;3.50;1.98;;;;;;;;;;6309355;22;20329;-75
2021/05/08 08:19:12;;;;;;;3.47;1.75;;;;;;;;;;6309447;22;19941;-79
2021/05/08 08:21:38;;;;;;;3.10;1.58;;;;;;;;;;6308885;22;20333;-77
2021/05/08 08:24:03;;;;;;;5.28;2.97;;;;;;;;;;6309527;22;19999;-79
2021/05/08 08:26:29;;;;;;;4.20;1.80;;;;;;;;;;6309229;22;20007;-78
2021/05/08 08:28:55;;;;;;;4.50;2.33;;;;;;;;;;6308923;22;20082;-77
2021/05/08 08:31:20;;;;;;;4.38;1.90;;;;;;;;;;6309415;22;20369;-76
2021/05/08 08:33:46;;;;;;;3.80;1.80;;;;;;;;;;6281969;22;20429;-78
2021/05/08 08:36:12;;;;;;;4.50;1.45;;;;;;;;;;6309653;22;20074;-78
2021/05/08 08:38:37;;;;;;;4.25;1.77;;;;;;;;;;6309398;22;20074;-77
2021/05/08 08:41:03;;;;;;;6.75;2.05;;;;;;;;;;6282177;22;20003;-75
2021/05/08 08:43:29;;;;;;;3.90;1.83;;;;;;;;;;6309456;22;20018;-77
2021/05/08 08:45:55;;;;;;;3.28;1.48;;;;;;;;;;6308946;22;20050;-78
2021/05/08 08:48:21;;;;;;;5.03;1.73;;;;;;;;;;6309876;22;20034;-77
2021/05/08 08:50:48;;;;;;;4.70;1.85;;;;;;;;;;6309361;22;20003;-77
2021/05/08 08:53:15;;;;;;;2.47;1.30;;;;;;;;;;6309061;22;20026;-77
2021/05/08 08:55:42;;;;;;;3.60;1.30;;;;;;;;;;6309339;22;20003;-78
2021/05/08 08:58:08;;;;;;;4.40;2.15;;;;;;;;;;6309244;22;20007;-77
2021/05/08 09:00:33;;;;;;;3.22;1.48;;;;;;;;;;6309357;22;20082;-75
2021/05/08 09:03:02;;;;;;;4.60;1.27;;;;;;;;;;6281589;22;20082;-77
2021/05/08 09:05:28;;;;;;;4.53;1.63;;;;;;;;;;6308671;22;20003;-76
2021/05/08 09:07:54;;;;;;;4.03;1.65;;;;;;;;;;6308590;22;20042;-77
2021/05/08 09:10:32;;;;;;;4.65;1.80;;;;;;;;;;6281297;22;20003;-76
2021/05/08 09:12:59;;;;;;;6.63;1.92;;;;;;;;;;6309233;22;19999;-76
2021/05/08 09:15:37;;;;;;;4.15;1.30;;;;;;;;;;6280419;22;20010;-77
2021/05/08 09:18:03;;;;;;;5.43;1.65;;;;;;;;;;6308832;22;19999;-76
2021/05/08 09:20:41;;;;;;;5.90;1.30;;;;;;;;;;6308841;22;20005;-77
2021/05/08 09:23:17;;;;;;;5.05;1.52;;;;;;;;;;6280358;22;20007;-77
2021/05/08 09:25:54;;;;;;;2.67;1.45;;;;;;;;;;6309184;22;20508;-76
2021/05/08 09:28:20;;;;;;;4.90;1.33;;;;;;;;;;6308342;22;19995;-77
2021/05/08 09:30:45;;;;;;;3.20;1.30;;;;;;;;;;6309175;22;20003;-78
2021/05/08 09:33:11;;;;;;;2.45;1.25;;;;;;;;;;6308198;22;20073;-79
2021/05/08 09:35:37;;;;;;;5.00;2.15;;;;;;;;;;6308568;22;20010;-77
2021/05/08 09:38:16;;;;;;;4.38;1.50;;;;;;;;;;6308715;22;20488;-76
2021/05/08 09:40:52;;;;;;;3.90;1.60;;;;;;;;;;6309194;22;20429;-78
2021/05/08 09:43:20;;;;;;;4.38;1.30;;;;;;;;;;6308648;22;20079;-77
2021/05/08 09:45:51;;;;;;;3.50;1.27;;;;;;;;;;6308324;22;20390;-78
2021/05/08 09:48:31;;;;;;;3.10;1.40;;;;;;;;;;6308318;22;19902;-76
2021/05/08 09:51:15;;;;;;;4.95;1.60;;;;;;;;;;6308718;22;20060;-77
2021/05/08 09:53:42;;;;;;;3.00;1.25;;;;;;;;;;6308129;22;20010;-73
2021/05/08 09:56:27;;;;;;;3.10;1.20;;;;;;;;;;6308183;22;20391;-76
2021/05/08 09:58:54;;;;;;;3.95;1.38;;;;;;;;;;6281291;22;20450;-77
2021/05/08 10:01:20;;;;;;;3.38;1.33;;;;;;;;;;6307641;22;20042;-77
2021/05/08 10:03:45;;;;;;;3.75;1.27;;;;;;;;;;6280766;22;20058;-77
2021/05/08 10:06:12;;;;;;;3.95;1.35;;;;;;;;;;6280946;22;20082;-78
2021/05/08 10:08:37;;;;;;;3.95;1.08;;;;;;;;;;6307852;22;20588;-79
2021/05/08 10:11:03;;;;;;;2.65;1.00;;;;;;;;;;6307964;22;19995;-77
2021/05/08 10:13:31;;;;;;;3.90;1.50;;;;;;;;;;6306783;22;20467;-78
2021/05/08 10:15:58;;;;;;;2.70;1.25;;;;;;;;;;6306895;22;20078;-77
2021/05/08 10:18:25;;;;;;;2.10;1.20;;;;;;;;;;6306973;22;20432;-76
2021/05/08 10:20:51;;;;;;;3.75;1.13;;;;;;;;;;6279923;22;20003;-77
2021/05/08 10:23:17;;;;;;;2.35;1.27;;;;;;;;;;6307498;22;20372;-77
2021/05/08 10:25:43;;;;;;;3.08;1.25;;;;;;;;;;6307359;22;20027;-77
2021/05/08 10:28:09;;;;;;;2.67;1.30;;;;;;;;;;6308067;22;20002;-77
2021/05/08 10:30:39;;;;;;;2.88;1.17;;;;;;;;;;6307938;22;20010;-81
2021/05/08 10:33:08;;;;;;;2.60;1.25;;;;;;;;;;6279202;22;20049;-77
2021/05/08 10:35:44;;;;;;;2.97;1.40;;;;;;;;;;6308341;22;20068;-78
2021/05/08 10:38:23;;;;;;;2.92;1.33;;;;;;;;;;6308458;22;20007;-79
2021/05/08 10:40:50;;;;;;;5.55;2.22;;;;;;;;;;6307448;22;20007;-77
2021/05/08 10:43:34;;;;;;;6.53;2.00;;;;;;;;;;6307658;22;20075;-78
2021/05/08 10:46:00;;;;;;;5.90;1.60;;;;;;;;;;6279924;22;20781;-77
2021/05/08 10:48:25;;;;;;;3.00;1.45;;;;;;;;;;6278961;22;20033;-78
2021/05/08 10:50:54;;;;;;;3.20;1.77;;;;;;;;;;6306859;22;20086;-80
2021/05/08 10:53:20;;;;;;;3.85;1.50;;;;;;;;;;6306969;22;20007;-81
2021/05/08 10:55:52;;;;;;;3.35;1.70;;;;;;;;;;6305308;22;20003;-81
2021/05/08 10:58:18;;;;;;;2.97;1.50;;;;;;;;;;6278285;22;20025;-81
2021/05/08 11:01:05;;;;;;;2.60;1.40;;;;;;;;;;6279548;22;20003;-81
2021/05/08 11:06:03;;;;;;;2.47;1.40;;;;;;;;;;6214890;23;20427;-81
2021/05/08 11:08:29;;;;;;;5.40;1.45;;;;;;;;;;6214608;23;20391;-82
2021/05/08 11:11:02;;;;;;;2.78;1.20;;;;;;;;;;6215131;23;20024;-81
2021/05/08 11:13:28;;;;;;;4.43;1.90;;;;;;;;;;6215107;23;20007;-77
2021/05/08 11:15:54;;;;;;;3.60;1.92;;;;;;;;;;6214500;23;20004;-76
2021/05/08 11:21:02;;;;;;;3.20;1.60;;;;;;;;;;6217646;23;20012;-77
2021/05/08 11:23:40;;;;;;;4.53;1.48;;;;;;;;;;6213613;23;20004;-78
2021/05/08 11:28:57;;;;;;;4.85;1.90;;;;;;;;;;6215402;23;20004;-80
2021/05/08 11:31:23;;;;;;;6.10;1.88;;;;;;;;;;6215412;23;20000;-79
2021/05/08 11:33:49;;;;;;;3.95;1.70;;;;;;;;;;6214978;23;20005;-79
2021/05/08 11:36:15;;;;;;;4.85;1.48;;;;;;;;;;6215524;23;20011;-79
2021/05/08 11:38:41;;;;;;;4.68;1.73;;;;;;;;;;6215468;23;20004;-80
2021/05/08 11:41:23;;;;;;;3.03;1.48;;;;;;;;;;6214687;23;20031;-78
2021/05/08 11:43:53;;;;;;;3.60;1.58;;;;;;;;;;6215110;23;20083;-78
2021/05/08 11:46:22;;;;;;;3.85;1.70;;;;;;;;;;6218241;23;20004;-78
2021/05/08 11:48:51;;;;;;;4.43;2.50;;;;;;;;;;6215794;23;20000;-80
2021/05/08 11:51:17;;;;;;;4.88;1.65;;;;;;;;;;6217870;23;20050;-79
2021/05/08 11:53:43;;;;;;;4.50;2.20;;;;;;;;;;6216502;23;20455;-77
2021/05/08 11:56:08;;;;;;;4.28;2.05;;;;;;;;;;6218222;23;20425;-80
2021/05/08 11:58:34;;;;;;;4.55;1.63;;;;;;;;;;6218450;23;20569;-80
2021/05/08 12:01:00;;;;;;;3.95;1.95;;;;;;;;;;6218635;23;20004;-80
2021/05/08 12:03:27;;;;;;;5.68;1.58;;;;;;;;;;6217740;23;20005;-80
2021/05/08 12:05:53;;;;;;;3.08;1.65;;;;;;;;;;6218024;23;20014;-78
2021/05/08 12:08:20;;;;;;;4.55;1.80;;;;;;;;;;6218248;23;20043;-79
2021/05/08 12:10:46;;;;;;;4.35;1.63;;;;;;;;;;6216194;23;20063;-77
2021/05/08 12:13:12;;;;;;;3.50;1.25;;;;;;;;;;6217639;23;20343;-79
2021/05/08 12:15:52;;;;;;;2.47;1.40;;;;;;;;;;6217651;23;20080;-77
2021/05/08 12:18:19;;;;;;;5.30;1.35;;;;;;;;;;6215542;23;20005;-78
2021/05/08 12:20:46;;;;;;;3.35;1.50;;;;;;;;;;6217468;23;20257;-77
2021/05/08 12:23:19;;;;;;;3.00;1.25;;;;;;;;;;6215632;23;20059;-77
2021/05/08 12:26:03;;;;;;;6.40;1.45;;;;;;;;;;6218073;23;20055;-80
2021/05/08 12:28:29;;;;;;;2.50;1.30;;;;;;;;;;6217898;23;20000;-78
2021/05/08 12:30:54;;;;;;;3.10;1.50;;;;;;;;;;6218299;23;20383;-79
2021/05/08 12:33:24;;;;;;;2.92;1.40;;;;;;;;;;6218153;23;20004;-77
2021/05/08 12:35:50;;;;;;;2.63;1.50;;;;;;;;;;6217466;23;20011;-80
2021/05/08 12:38:16;;;;;;;4.03;2.03;;;;;;;;;;6216954;23;20009;-78
2021/05/08 12:40:42;;;;;;;5.43;1.67;;;;;;;;;;6216085;23;20027;-79
2021/05/08 12:43:07;;;;;;;6.57;1.50;;;;;;;;;;6215105;23;20039;-79
2021/05/08 12:45:33;;;;;;;4.40;1.45;;;;;;;;;;6214779;23;20004;-79
2021/05/08 12:47:59;;;;;;;2.85;1.42;;;;;;;;;;6214272;23;20312;-79
2021/05/08 12:50:34;;;;;;;4.03;1.50;;;;;;;;;;6213673;23;20406;-78
2021/05/08 12:53:01;;;;;;;2.83;1.20;;;;;;;;;;6215059;23;20028;-78
2021/05/08 12:55:27;;;;;;;2.95;1.33;;;;;;;;;;6214189;23;20019;-79
2021/05/08 13:00:12;;;;;;;3.95;1.63;;;;;;;;;;5092941;27;20405;-79
2021/05/08 13:02:40;;;;;;;7.35;2.05;;;;;;;;;;5089589;28;20040;-81
2021/05/08 13:05:07;;;;;;;4.22;1.88;;;;;;;;;;5084001;28;20031;-81
2021/05/08 13:07:34;;;;;;;2.90;1.55;;;;;;;;;;5088108;28;20384;-79
2021/05/08 13:10:18;;;;;;;3.50;1.30;;;;;;;;;;5089410;28;20380;-80
2021/05/08 13:12:45;;;;;;;5.15;1.48;;;;;;;;;;5073456;28;20550;-81
2021/05/08 13:15:15;;;;;;;4.15;1.77;;;;;;;;;;5085462;28;20103;-80
2021/05/08 13:17:49;;;;;;;3.17;1.27;;;;;;;;;;5083780;28;20360;-81
2021/05/08 13:20:16;;;;;;;4.18;1.50;;;;;;;;;;5080454;28;20024;-78
2021/05/08 13:22:43;;;;;;;4.55;1.20;;;;;;;;;;5082910;28;20021;-79
2021/05/08 13:25:13;;;;;;;3.45;1.48;;;;;;;;;;5085418;28;20020;-81
2021/05/08 13:27:40;;;;;;;2.90;1.17;;;;;;;;;;5086593;28;20029;-80
2021/05/08 13:30:09;;;;;;;3.38;1.20;;;;;;;;;;5087056;28;20164;-77
2021/05/08 13:32:34;;;;;;;2.88;1.20;;;;;;;;;;5083828;28;20025;-80
2021/05/08 13:35:00;;;;;;;3.80;1.20;;;;;;;;;;5084753;28;20182;-80
2021/05/08 13:37:26;;;;;;;4.00;1.58;;;;;;;;;;5081273;28;20124;-79
2021/05/08 13:39:51;;;;;;;2.60;1.20;;;;;;;;;;5076939;28;20021;-82
2021/05/08 13:42:17;;;;;;;3.40;1.42;;;;;;;;;;5083947;28;20107;-81
2021/05/08 13:44:43;;;;;;;4.45;1.70;;;;;;;;;;5085275;28;20016;-79
2021/05/08 13:47:21;;;;;;;2.65;1.17;;;;;;;;;;5084976;28;20048;-80
2021/05/08 13:49:51;;;;;;;3.33;1.23;;;;;;;;;;5068798;28;20580;-80
2021/05/08 13:52:17;;;;;;;4.40;1.35;;;;;;;;;;5074480;28;20024;-81
2021/05/08 13:54:43;;;;;;;3.42;1.23;;;;;;;;;;5082642;28;20034;-78
2021/05/08 13:57:09;;;;;;;2.65;1.30;;;;;;;;;;5084899;28;19960;-79
2021/05/08 13:59:34;;;;;;;2.65;1.10;;;;;;;;;;5076232;28;20025;-79
2021/05/08 14:02:00;;;;;;;3.67;1.20;;;;;;;;;;5082821;28;20027;-82
2021/05/08 14:04:26;;;;;;;2.65;1.27;;;;;;;;;;5084604;28;20016;-81
2021/05/08 14:06:51;;;;;;;2.55;1.30;;;;;;;;;;5089742;28;20016;-82
2021/05/08 14:09:17;;;;;;;2.90;1.17;;;;;;;;;;5086784;28;20099;-80
2021/05/08 14:11:42;;;;;;;5.25;1.50;;;;;;;;;;5067815;28;20107;-81
2021/05/08 14:14:08;;;;;;;3.10;1.40;;;;;;;;;;5070134;28;20094;-81
2021/05/08 14:16:34;;;;;;;4.35;1.92;;;;;;;;;;5070146;28;20032;-82
2021/05/08 14:19:00;;;;;;;2.65;1.10;;;;;;;;;;5071533;28;20020;-81
2021/05/08 14:21:27;;;;;;;3.30;1.55;;;;;;;;;;5072836;28;20013;-81
2021/05/08 14:23:52;;;;;;;3.05;1.23;;;;;;;;;;5064596;28;20044;-81
2021/05/08 14:26:18;;;;;;;2.92;1.33;;;;;;;;;;5067202;28;20104;-81
2021/05/08 14:28:43;;;;;;;3.28;1.40;;;;;;;;;;5066097;28;20158;-80
2021/05/08 14:31:09;;;;;;;2.80;1.30;;;;;;;;;;5057247;28;20040;-82
2021/05/08 14:33:35;;;;;;;4.15;1.30;;;;;;;;;;5060446;28;20027;-81
2021/05/08 14:36:01;;;;;;;2.60;1.23;;;;;;;;;;5053388;28;20036;-81
2021/05/08 14:38:27;;;;;;;4.63;1.45;;;;;;;;;;5063153;28;20507;-80
2021/05/08 14:43:11;;;;;;;4.88;1.50;;;;;;;;;;5076157;28;20770;-81
2021/05/08 14:45:37;;;;;;;2.10;0.90;;;;;;;;;;5065881;28;20103;-79
2021/05/08 14:48:03;;;;;;;4.95;1.30;;;;;;;;;;5068123;28;20024;-81
2021/05/08 14:50:28;;;;;;;3.70;1.50;;;;;;;;;;5065213;28;20472;-81
2021/05/08 14:52:54;;;;;;;2.42;1.17;;;;;;;;;;5060232;28;20492;-80
2021/05/08 14:55:20;;;;;;;2.00;1.00;;;;;;;;;;5061609;28;20033;-81
2021/05/08 14:57:45;;;;;;;2.63;1.27;;;;;;;;;;5061965;28;20086;-81
2021/05/08 15:00:11;;;;;;;2.50;1.17;;;;;;;;;;5061504;28;20107;-80
2021/05/08 15:02:37;;;;;;;3.30;1.38;;;;;;;;;;5068731;28;20021;-81
2021/05/08 15:05:03;;;;;;;2.55;1.13;;;;;;;;;;5065453;28;20109;-79
2021/05/08 15:07:28;;;;;;;2.15;1.10;;;;;;;;;;5067432;28;20029;-80
2021/05/08 15:09:54;;;;;;;3.40;1.52;;;;;;;;;;5048203;28;20077;-78
2021/05/08 15:12:19;;;;;;;2.70;1.20;;;;;;;;;;5061945;28;20057;-77
2021/05/08 15:14:46;;;;;;;3.30;1.48;;;;;;;;;;5048273;28;20029;-78
2021/05/08 15:17:11;;;;;;;3.17;1.42;;;;;;;;;;5063246;28;20029;-78
2021/05/08 15:19:37;;;;;;;3.22;1.33;;;;;;;;;;5067527;28;20057;-78
2021/05/08 15:22:02;;;;;;;2.90;1.50;;;;;;;;;;5056178;28;20121;-79
2021/05/08 15:24:28;;;;;;;4.10;1.40;;;;;;;;;;5069310;28;20032;-79
2021/05/08 15:26:54;;;;;;;3.65;1.70;;;;;;;;;;5066579;28;20088;-78
2021/05/08 15:29:20;;;;;;;3.05;1.20;;;;;;;;;;5044185;28;20033;-78
2021/05/08 15:31:46;;;;;;;2.42;1.20;;;;;;;;;;5039423;28;20024;-78
2021/05/08 15:34:11;;;;;;;2.72;1.30;;;;;;;;;;5044600;28;20033;-79
2021/05/08 15:36:37;;;;;;;2.53;1.25;;;;;;;;;;5051482;28;20055;-78
2021/05/08 15:39:05;;;;;;;3.83;1.40;;;;;;;;;;5044209;28;20112;-80
2021/05/08 15:41:30;;;;;;;3.25;1.35;;;;;;;;;;5065305;28;20025;-79
2021/05/08 15:43:56;;;;;;;2.35;1.00;;;;;;;;;;5050384;28;20154;-78
2021/05/08 15:46:27;;;;;;;3.67;1.13;;;;;;;;;;5064119;28;20020;-77
2021/05/08 15:48:52;;;;;;;2.83;1.55;;;;;;;;;;5067531;28;20049;-79
2021/05/08 15:51:18;;;;;;;3.90;1.20;;;;;;;;;;5053202;28;20052;-79
2021/05/08 15:53:44;;;;;;;3.22;1.50;;;;;;;;;;5060371;28;20112;-79
2021/05/08 15:56:09;;;;;;;2.78;0.98;;;;;;;;;;5051716;28;20037;-79
2021/05/08 15:58:35;;;;;;;3.33;0.93;;;;;;;;;;5035634;28;20035;-78
2021/05/08 16:01:01;;;;;;;2.75;1.23;;;;;;;;;;5031749;28;20039;-78
2021/05/08 16:03:27;;;;;;;2.17;1.27;;;;;;;;;;5026183;28;20037;-78
2021/05/08 16:05:54;;;;;;;2.90;1.27;;;;;;;;;;5030928;28;20025;-80
2021/05/08 16:08:20;;;;;;;3.10;1.23;;;;;;;;;;5036240;28;20055;-78
2021/05/08 16:13:04;;;;;;;2.95;1.17;;;;;;;;;;5064646;28;20385;-79
2021/05/08 16:15:29;;;;;;;2.03;0.90;;;;;;;;;;5044045;28;20476;-77
2021/05/08 16:17:55;;;;;;;2.67;1.00;;;;;;;;;;5046593;28;20036;-78
2021/05/08 16:20:21;;;;;;;3.08;1.00;;;;;;;;;;5054673;28;20108;-78
2021/05/08 16:22:46;;;;;;;2.85;1.20;;;;;;;;;;5042461;28;20025;-79
2021/05/08 16:25:12;;;;;;;2.35;1.10;;;;;;;;;;5037073;28;20125;-77
2021/05/08 16:27:38;;;;;;;3.28;1.23;;;;;;;;;;5039604;28;20557;-78
2021/05/08 16:30:04;;;;;;;2.47;1.38;;;;;;;;;;5039832;28;20039;-79
2021/05/08 16:32:30;;;;;;;3.22;1.30;;;;;;;;;;5042751;28;20029;-80
2021/05/08 16:34:59;;;;;;;2.40;1.10;;;;;;;;;;5044707;28;20088;-78
2021/05/08 16:37:28;;;;;;;2.67;1.10;;;;;;;;;;5047629;28;20461;-78
2021/05/08 16:39:56;;;;;;;2.75;1.17;;;;;;;;;;5052616;28;20083;-78
2021/05/08 16:42:28;;;;;;;4.05;0.90;;;;;;;;;;5050395;28;20636;-78
2021/05/08 16:44:54;;;;;;;2.47;1.20;;;;;;;;;;5051114;28;20037;-78
2021/05/08 16:47:37;;;;;;;3.05;1.40;;;;;;;;;;5038939;28;20061;-78
2021/05/08 16:50:09;;;;;;;3.15;1.33;;;;;;;;;;5053566;28;20097;-78
2021/05/08 16:52:35;;;;;;;3.10;1.10;;;;;;;;;;5046880;28;20025;-78
2021/05/08 16:55:02;;;;;;;2.65;1.40;;;;;;;;;;5041608;28;20041;-78
2021/05/08 16:57:40;;;;;;;4.07;1.83;;;;;;;;;;5039443;28;20494;-78
2021/05/08 17:00:12;;;;;;;3.33;2.00;;;;;;;;;;5047516;28;20044;-79
2021/05/08 17:02:44;;;;;;;2.58;1.30;;;;;;;;;;5044728;28;20116;-79
2021/05/08 17:05:11;;;;;;;3.47;1.60;;;;;;;;;;5046804;28;20037;-79
2021/05/08 17:07:48;;;;;;;4.13;1.42;;;;;;;;;;5038065;28;20041;-78
2021/05/08 17:10:17;;;;;;;4.90;2.10;;;;;;;;;;5035754;28;20124;-78
2021/05/08 17:12:43;;;;;;;4.18;1.90;;;;;;;;;;5048053;28;20064;-77
2021/05/08 17:15:09;;;;;;;5.10;1.65;;;;;;;;;;5049477;28;20029;-79
2021/05/08 17:17:35;;;;;;;3.88;1.30;;;;;;;;;;5047191;28;20032;-79
2021/05/08 17:20:01;;;;;;;2.92;1.40;;;;;;;;;;5054121;28;20025;-78
2021/05/08 17:22:27;;;;;;;5.18;1.40;;;;;;;;;;5044674;28;20240;-78
2021/05/08 17:24:52;;;;;;;3.95;1.35;;;;;;;;;;5021496;28;20105;-78
2021/05/08 17:27:18;;;;;;;4.97;1.27;;;;;;;;;;5029919;28;20030;-78
2021/05/08 17:29:44;;;;;;;2.83;1.48;;;;;;;;;;5030726;28;20048;-78
2021/05/08 17:32:10;;;;;;;5.57;2.20;;;;;;;;;;5036042;28;20017;-77
2021/05/08 17:34:38;;;;;;;4.72;1.77;;;;;;;;;;5033452;28;20033;-78
2021/05/08 17:37:05;;;;;;;3.25;2.38;;;;;;;;;;5032101;28;20055;-78
2021/05/08 17:39:31;;;;;;;5.95;2.42;;;;;;;;;;5023257;28;20021;-78
2021/05/08 17:41:58;;;;;;;3.75;2.00;;;;;;;;;;5027360;28;20040;-77
2021/05/08 17:44:23;;;;;;;3.55;1.83;;;;;;;;;;5039671;28;20025;-77
2021/05/08 17:46:51;;;;;;;2.97;1.50;;;;;;;;;;5032556;28;20052;-78
2021/05/08 17:49:17;;;;;;;3.53;1.83;;;;;;;;;;5028513;28;20026;-77
2021/05/08 17:51:42;;;;;;;2.40;1.20;;;;;;;;;;5035837;28;20033;-77
2021/05/08 17:54:08;;;;;;;4.85;1.17;;;;;;;;;;5032652;28;20097;-78
2021/05/08 17:56:34;;;;;;;3.55;1.05;;;;;;;;;;5028880;28;20029;-78
2021/05/08 17:59:02;;;;;;;3.20;1.40;;;;;;;;;;5032314;28;20040;-77
2021/05/08 18:01:28;;;;;;;2.63;1.50;;;;;;;;;;5035211;28;20501;-77
2021/05/08 18:03:53;;;;;;;3.45;1.50;;;;;;;;;;5036023;28;20087;-77
2021/05/08 18:06:19;;;;;;;3.38;1.30;;;;;;;;;;5037102;28;20028;-77
2021/05/08 18:08:45;;;;;;;3.03;1.67;;;;;;;;;;5037279;28;20060;-77
2021/05/08 18:11:10;;;;;;;4.20;1.17;;;;;;;;;;5038610;28;20098;-77
2021/05/08 18:13:36;;;;;;;2.85;1.45;;;;;;;;;;5032501;28;20165;-78
2021/05/08 18:16:03;;;;;;;3.00;1.17;;;;;;;;;;5035392;28;20026;-78
2021/05/08 18:18:28;;;;;;;4.32;3.13;;;;;;;;;;5036188;28;20389;-79
2021/05/08 18:20:54;;;;;;;3.67;1.70;;;;;;;;;;5027903;28;20030;-78
2021/05/08 18:23:20;;;;;;;6.45;1.70;;;;;;;;;;5029773;28;20058;-78
2021/05/08 18:25:46;;;;;;;2.92;1.30;;;;;;;;;;5025811;28;20017;-77
2021/05/08 18:28:13;;;;;;;4.93;1.40;;;;;;;;;;5025963;28;20033;-77
2021/05/08 18:30:40;;;;;;;2.63;1.25;;;;;;;;;;5027118;28;20082;-78
2021/05/08 18:33:06;;;;;;;2.75;1.35;;;;;;;;;;5022958;28;20029;-78
2021/05/08 18:35:32;;;;;;;2.88;1.20;;;;;;;;;;5031072;28;20355;-77
2021/05/08 18:37:59;;;;;;;2.58;1.10;;;;;;;;;;5032095;28;20060;-78
2021/05/08 18:40:26;;;;;;;4.57;1.02;;;;;;;;;;5027211;28;20033;-77
2021/05/08 18:42:51;;;;;;;4.75;1.33;;;;;;;;;;5029335;28;20071;-77
2021/05/08 18:45:17;;;;;;;5.53;1.17;;;;;;;;;;5034871;28;20033;-77
2021/05/08 18:47:43;;;;;;;4.30;1.30;;;;;;;;;;5033426;28;20101;-77
2021/05/08 18:50:08;;;;;;;3.13;1.35;;;;;;;;;;5022786;28;20061;-78
2021/05/08 18:52:34;;;;;;;4.85;1.60;;;;;;;;;;5028697;28;20037;-77
2021/05/08 18:55:00;;;;;;;3.65;1.40;;;;;;;;;;5027103;28;20148;-77
2021/05/08 18:57:25;;;;;;;3.17;1.35;;;;;;;;;;5028359;28;20105;-77
2021/05/08 18:59:51;;;;;;;2.88;1.48;;;;;;;;;;5033468;28;20017;-78
2021/05/08 19:02:17;;;;;;;2.88;1.17;;;;;;;;;;5025434;28;20029;-78
2021/05/08 19:04:43;;;;;;;3.60;1.40;;;;;;;;;;5027772;28;20029;-77
2021/05/08 19:07:08;;;;;;;4.55;1.30;;;;;;;;;;5025338;28;20108;-77
2021/05/08 19:09:34;;;;;;;2.33;1.20;;;;;;;;;;5031194;28;20029;-77
2021/05/08 19:12:00;;;;;;;3.10;1.60;;;;;;;;;;5026577;28;20112;-78
2021/05/08 19:14:29;;;;;;;4.15;1.70;;;;;;;;;;5030417;28;20102;-77
2021/05/08 19:16:56;;;;;;;2.90;1.27;;;;;;;;;;5026363;28;20097;-77
2021/05/08 19:19:21;;;;;;;2.38;1.00;;;;;;;;;;5025671;28;20027;-77
2021/05/08 19:21:47;;;;;;;2.90;1.00;;;;;;;;;;5019168;28;20026;-78
2021/05/08 19:24:13;;;;;;;2.10;1.00;;;;;;;;;;5032998;28;20104;-78
2021/05/08 19:26:39;;;;;;;3.95;1.30;;;;;;;;;;5029123;28;20127;-78
2021/05/08 19:29:04;;;;;;;3.95;1.45;;;;;;;;;;5024696;28;20026;-78
2021/05/08 19:31:30;;;;;;;2.63;1.40;;;;;;;;;;5027810;28;20604;-79
2021/05/08 19:33:56;;;;;;;3.25;1.95;;;;;;;;;;5031872;28;20079;-78
2021/05/08 19:36:21;;;;;;;4.53;1.60;;;;;;;;;;5031620;28;20149;-77
2021/05/08 19:38:47;;;;;;;3.60;1.80;;;;;;;;;;5025833;28;20021;-77
2021/05/08 19:41:13;;;;;;;4.68;1.90;;;;;;;;;;5026445;28;20032;-77
2021/05/08 19:43:38;;;;;;;3.58;1.80;;;;;;;;;;5028906;28;20109;-77
2021/05/08 19:46:04;;;;;;;2.80;1.38;;;;;;;;;;5027061;28;20112;-77
2021/05/08 19:48:30;;;;;;;3.20;1.50;;;;;;;;;;5031341;28;20462;-77
2021/05/08 19:50:56;;;;;;;3.38;1.48;;;;;;;;;;5031348;28;20088;-77
2021/05/08 19:53:21;;;;;;;3.80;1.48;;;;;;;;;;5031606;28;20018;-77
2021/05/08 19:55:47;;;;;;;3.78;1.50;;;;;;;;;;5029965;28;20109;-77
2021/05/08 19:58:12;;;;;;;3.65;1.63;;;;;;;;;;5025725;28;20029;-77